Time;durP1;ratioP1;P1;durP2;ratioP2;P2;SDS_P1;SDS_P2;PMS_P1;PMS_P2;Temp;Humidity;BMP_temperature;BMP_pressure;BME280_temperature;BME280_humidity;BME280_pressure;Samples;Min_cycle;Max_cycle;Signal;HPM_P1;HPM_P2
2022/02/16 00:01:12;;;;;;;;;;;;;;;-2.57;100.00;99726.02;1759121;81;20653;-72
2022/02/16 00:03:38;;;;;;;;;;;;;;;-2.58;100.00;99720.87;1759187;81;21185;-72
2022/02/16 00:06:05;;;;;;;;;;;;;;;-2.58;100.00;99719.52;1759233;81;21785;-72
2022/02/16 00:08:32;;;;;;;;;;;;;;;-2.59;100.00;99721.91;1758925;81;20135;-72
2022/02/16 00:10:58;;;;;;;;;;;;;;;-2.63;100.00;99716.69;1759158;80;20095;-72
2022/02/16 00:13:24;;;;;;;;;;;;;;;-2.64;100.00;99729.83;1759018;81;20269;-72
2022/02/16 00:15:51;;;;;;;;;;;;;;;-2.70;100.00;99720.28;1759097;81;20119;-73
2022/02/16 00:18:18;;;;;;;;;;;;;;;-2.69;100.00;99717.89;1759446;81;21818;-73
2022/02/16 00:20:45;;;;;;;;;;;;;;;-2.69;100.00;99711.70;1759088;81;20146;-73
2022/02/16 00:23:12;;;;;;;;;;;;;;;-2.70;100.00;99716.25;1758949;81;20167;-73
2022/02/16 00:25:38;;;;;;;;;;;;;;;-2.73;100.00;99703.78;1775274;80;20092;-73
2022/02/16 00:28:05;;;;;;;;;;;;;;;-2.75;100.00;99704.01;1803894;78;20129;-72
2022/02/16 00:30:31;;;;;;;;;;;;;;;-2.78;100.00;99703.64;1790248;80;22001;-73
2022/02/16 00:32:57;;;;;;;;;;;;;;;-2.81;100.00;99699.53;1820751;78;20468;-71
2022/02/16 00:35:23;;;;;;;;;;;;;;;-2.81;100.00;99701.40;1822764;78;20456;-71
2022/02/16 00:37:51;;;;;;;;;;;;;;;-2.81;100.00;99700.88;1822459;78;20157;-71
2022/02/16 00:40:18;;;;;;;;;;;;;;;-2.84;100.00;99697.81;1822730;78;20133;-71
2022/02/16 00:42:45;;;;;;;;;;;;;;;-2.86;100.00;99696.70;1822501;78;21147;-70
2022/02/16 00:45:12;;;;;;;;;;;;;;;-2.87;100.00;99687.52;1822759;78;20105;-69
2022/02/16 00:47:40;;;;;;;;;;;;;;;-2.86;100.00;99681.92;1823521;78;20077;-69
2022/02/16 00:50:07;;;;;;;;;;;;;;;-2.87;100.00;99684.31;1823620;78;20113;-69
2022/02/16 00:52:36;;;;;;;;;;;;;;;-2.90;100.00;99679.42;1823701;78;20455;-71
2022/02/16 00:55:02;;;;;;;;;;;;;;;-2.92;100.00;99674.80;1796554;78;21106;-70
2022/02/16 00:57:28;;;;;;;;;;;;;;;-2.94;100.00;99682.26;1823658;78;20602;-70
2022/02/16 00:59:55;;;;;;;;;;;;;;;-2.91;100.00;99675.09;1823821;78;20109;-70
2022/02/16 01:02:22;;;;;;;;;;;;;;;-2.89;100.00;99678.90;1823641;78;20072;-70
2022/02/16 01:04:48;;;;;;;;;;;;;;;-2.87;100.00;99678.12;1824036;78;20109;-70
2022/02/16 01:07:15;;;;;;;;;;;;;;;-2.85;100.00;99680.05;1823710;78;21139;-71
2022/02/16 01:09:41;;;;;;;;;;;;;;;-2.85;100.00;99675.50;1795528;78;20092;-72
2022/02/16 01:12:08;;;;;;;;;;;;;;;-2.87;100.00;99672.22;1791184;80;20129;-72
2022/02/16 01:14:35;;;;;;;;;;;;;;;-2.89;100.00;99671.66;1791561;80;20157;-71
2022/02/16 01:17:03;;;;;;;;;;;;;;;-2.93;100.00;99669.12;1791598;80;20086;-72
2022/02/16 01:19:34;;;;;;;;;;;;;;;-2.93;100.00;99663.75;1781661;79;21257;-72
2022/02/16 01:22:02;;;;;;;;;;;;;;;-2.92;100.00;99663.23;1794052;80;20066;-72
2022/02/16 01:24:29;;;;;;;;;;;;;;;-2.91;100.00;99663.52;1794028;80;20090;-75
2022/02/16 01:26:55;;;;;;;;;;;;;;;-2.92;100.00;99662.70;1794035;79;20158;-75
2022/02/16 01:29:23;;;;;;;;;;;;;;;-2.90;100.00;99663.30;1778472;80;20126;-75
2022/02/16 01:31:51;;;;;;;;;;;;;;;-2.89;100.00;99654.20;1786152;79;21976;-75
2022/02/16 01:34:20;;;;;;;;;;;;;;;-2.86;100.00;99653.71;1783738;80;20118;-75
2022/02/16 01:36:46;;;;;;;;;;;;;;;-2.87;100.00;99650.73;1783785;80;20083;-74
2022/02/16 01:39:13;;;;;;;;;;;;;;;-2.86;100.00;99647.52;1783693;80;20118;-74
2022/02/16 01:41:41;;;;;;;;;;;;;;;-2.88;100.00;99647.75;1783739;80;20410;-73
2022/02/16 01:44:09;;;;;;;;;;;;;;;-2.89;100.00;99643.97;1783443;80;21150;-74
2022/02/16 01:47:01;;;;;;;;;;;;;;;-2.90;100.00;99641.81;1783680;80;20082;-74
2022/02/16 01:49:28;;;;;;;;;;;;;;;-2.87;100.00;99643.20;1783812;80;20118;-73
2022/02/16 01:51:55;;;;;;;;;;;;;;;-2.85;100.00;99637.07;1770368;80;20119;-68
2022/02/16 01:54:23;;;;;;;;;;;;;;;-2.82;100.00;99632.06;1784166;80;20439;-71
2022/02/16 01:56:50;;;;;;;;;;;;;;;-2.76;100.00;99638.41;1783871;80;21192;-71
2022/02/16 01:59:18;;;;;;;;;;;;;;;-2.68;100.00;99637.56;1783978;80;20092;-71
2022/02/16 02:02:01;;;;;;;;;;;;;;;-2.58;100.00;99644.27;1787578;79;20166;-71
2022/02/16 02:04:28;;;;;;;;;;;;;;;-2.48;100.00;99641.33;1808952;79;20208;-72
2022/02/16 02:06:57;;;;;;;;;;;;;;;-2.37;100.00;99649.14;1789412;78;20116;-73
2022/02/16 02:09:23;;;;;;;;;;;;;;;-2.26;100.00;99643.47;1794943;79;21136;-73
2022/02/16 02:11:50;;;;;;;;;;;;;;;-2.17;100.00;99641.56;1815735;79;20070;-72
2022/02/16 02:14:16;;;;;;;;;;;;;;;-2.07;100.00;99645.86;1815823;78;20150;-72
2022/02/16 02:16:53;;;;;;;;;;;;;;;-2.00;100.00;99643.88;1814231;79;20169;-72
2022/02/16 02:19:20;;;;;;;;;;;;;;;-1.91;100.00;99646.23;1815913;79;20178;-72
2022/02/16 02:21:50;;;;;;;;;;;;;;;-1.85;100.00;99648.82;1815727;79;21231;-72
2022/02/16 02:24:16;;;;;;;;;;;;;;;-1.79;100.00;99640.34;1816093;79;20118;-72
2022/02/16 02:26:43;;;;;;;;;;;;;;;-1.73;100.00;99649.63;1815890;79;20109;-72
2022/02/16 02:29:09;;;;;;;;;;;;;;;-1.69;100.00;99638.69;1815901;79;20122;-73
2022/02/16 02:31:38;;;;;;;;;;;;;;;-1.64;100.00;99633.95;1803984;78;20140;-71
2022/02/16 02:34:05;;;;;;;;;;;;;;;-1.60;100.00;99633.77;1794126;80;20999;-71
2022/02/16 02:36:31;;;;;;;;;;;;;;;-1.54;100.00;99628.80;1767200;80;20116;-71
2022/02/16 02:38:57;;;;;;;;;;;;;;;-1.50;100.00;99620.55;1767284;80;20088;-71
2022/02/16 02:41:25;;;;;;;;;;;;;;;-1.48;100.00;99611.70;1793992;80;20103;-71
2022/02/16 02:43:51;;;;;;;;;;;;;;;-1.45;100.00;99617.97;1794083;80;20147;-72
2022/02/16 02:46:18;;;;;;;;;;;;;;;-1.41;100.00;99620.48;1767417;80;21144;-72
2022/02/16 02:48:52;;;;;;;;;;;;;;;-1.37;100.00;99620.30;1791843;80;20116;-71
2022/02/16 02:51:20;;;;;;;;;;;;;;;-1.34;100.00;99611.75;1794040;80;20151;-72
2022/02/16 02:53:46;;;;;;;;;;;;;;;-1.28;100.00;99618.59;1793968;78;20120;-70
2022/02/16 02:56:13;;;;;;;;;;;;;;;-1.26;100.00;99615.95;1793962;80;20088;-70
2022/02/16 02:58:40;;;;;;;;;;;;;;;-1.21;100.00;99627.36;1793968;80;22337;-70
2022/02/16 03:01:07;;;;;;;;;;;;;;;-1.18;100.00;99622.85;1794020;80;20108;-70
2022/02/16 03:03:35;;;;;;;;;;;;;;;-1.16;100.00;99609.96;1794219;80;20147;-70
2022/02/16 03:06:07;;;;;;;;;;;;;;;-1.14;100.00;99611.33;1794072;79;20197;-69
2022/02/16 03:08:34;;;;;;;;;;;;;;;-1.12;100.00;99611.09;1794460;80;20094;-69
2022/02/16 03:11:00;;;;;;;;;;;;;;;-1.11;100.00;99612.73;1794118;80;21107;-69
2022/02/16 03:13:27;;;;;;;;;;;;;;;-1.09;100.00;99611.97;1794005;80;20115;-69
2022/02/16 03:15:57;;;;;;;;;;;;;;;-1.08;100.00;99603.64;1793994;80;20431;-69
2022/02/16 03:18:25;;;;;;;;;;;;;;;-1.06;100.00;99604.75;1794020;80;20166;-71
2022/02/16 03:20:52;;;;;;;;;;;;;;;-1.05;100.00;99598.31;1767243;80;20119;-70
2022/02/16 03:23:19;;;;;;;;;;;;;;;-1.06;100.00;99594.80;1794168;78;21115;-70
2022/02/16 03:25:45;;;;;;;;;;;;;;;-1.05;100.00;99596.96;1785373;80;20250;-70
2022/02/16 03:28:12;;;;;;;;;;;;;;;-1.02;100.00;99593.80;1756470;80;20094;-71
2022/02/16 03:30:39;;;;;;;;;;;;;;;-1.02;100.00;99597.30;1762785;81;20545;-71
2022/02/16 03:33:06;;;;;;;;;;;;;;;-1.00;100.00;99589.80;1750114;80;20110;-71
2022/02/16 03:35:32;;;;;;;;;;;;;;;-0.97;100.00;99593.89;1752062;81;21156;-72
2022/02/16 03:37:59;;;;;;;;;;;;;;;-0.96;100.00;99589.32;1744749;81;20157;-75
2022/02/16 03:40:26;;;;;;;;;;;;;;;-0.95;100.00;99588.27;1753569;81;20121;-75
2022/02/16 03:42:54;;;;;;;;;;;;;;;-0.94;100.00;99588.55;1743955;81;20096;-69
2022/02/16 03:45:21;;;;;;;;;;;;;;;-0.94;100.00;99586.68;1732423;83;20097;-70
2022/02/16 03:47:49;;;;;;;;;;;;;;;-0.94;100.00;99586.68;1731495;83;21666;-68
2022/02/16 03:50:15;;;;;;;;;;;;;;;-0.91;100.00;99594.28;1732332;83;20128;-68
2022/02/16 03:52:44;;;;;;;;;;;;;;;-0.88;100.00;99591.11;1732517;82;20451;-67
2022/02/16 03:55:10;;;;;;;;;;;;;;;-0.80;100.00;99588.56;1732393;83;20752;-67
2022/02/16 03:57:36;;;;;;;;;;;;;;;-0.78;100.00;99601.27;1732539;81;20140;-68
2022/02/16 04:00:05;;;;;;;;;;;;;;;-0.81;100.00;99594.48;1739236;80;21808;-67
2022/02/16 04:02:46;;;;;;;;;;;;;;;-0.81;100.00;99593.14;1730747;83;20112;-69
2022/02/16 04:05:13;;;;;;;;;;;;;;;-0.80;100.00;99590.73;1731802;83;20085;-67
2022/02/16 04:07:39;;;;;;;;;;;;;;;-0.80;100.00;99584.52;1707556;83;20084;-68
2022/02/16 04:10:07;;;;;;;;;;;;;;;-0.81;100.00;99585.05;1732434;81;20144;-67
2022/02/16 04:12:35;;;;;;;;;;;;;;;-0.81;100.00;99580.19;1732420;82;20163;-67
2022/02/16 04:15:04;;;;;;;;;;;;;;;-0.80;100.00;99582.64;1732297;81;20120;-68
2022/02/16 04:17:31;;;;;;;;;;;;;;;-0.79;100.00;99574.03;1733429;81;20073;-68
2022/02/16 04:19:59;;;;;;;;;;;;;;;-0.77;100.00;99580.81;1740516;81;20120;-70
2022/02/16 04:22:26;;;;;;;;;;;;;;;-0.76;100.00;99579.76;1744552;81;20457;-69
2022/02/16 04:24:55;;;;;;;;;;;;;;;-0.76;100.00;99576.24;1762861;81;21121;-68
2022/02/16 04:27:21;;;;;;;;;;;;;;;-0.77;100.00;99580.00;1762862;81;20090;-67
2022/02/16 04:29:47;;;;;;;;;;;;;;;-0.77;100.00;99571.38;1755976;81;20085;-68
2022/02/16 04:32:14;;;;;;;;;;;;;;;-0.75;100.00;99577.35;1774894;80;20081;-67
2022/02/16 04:34:41;;;;;;;;;;;;;;;-0.73;100.00;99573.06;1788546;80;20415;-67
2022/02/16 04:37:07;;;;;;;;;;;;;;;-0.74;100.00;99569.55;1788396;80;21824;-67
2022/02/16 04:39:33;;;;;;;;;;;;;;;-0.74;100.00;99570.08;1788184;80;20434;-70
2022/02/16 04:42:02;;;;;;;;;;;;;;;-0.74;100.00;99572.25;1772516;80;20469;-71
2022/02/16 04:44:28;;;;;;;;;;;;;;;-0.75;100.00;99569.27;1729513;81;20460;-73
2022/02/16 04:46:56;;;;;;;;;;;;;;;-0.76;100.00;99574.36;1756103;81;20109;-71
2022/02/16 04:49:23;;;;;;;;;;;;;;;-0.76;100.00;99576.24;1757105;81;22004;-74
2022/02/16 04:51:50;;;;;;;;;;;;;;;-0.77;100.00;99575.95;1757035;80;20165;-73
2022/02/16 04:54:17;;;;;;;;;;;;;;;-0.80;100.00;99575.91;1757199;81;20113;-72
2022/02/16 04:56:44;;;;;;;;;;;;;;;-0.81;100.00;99576.97;1757088;81;20149;-73
2022/02/16 04:59:10;;;;;;;;;;;;;;;-0.81;100.00;99572.92;1757192;81;20456;-72
2022/02/16 05:01:37;;;;;;;;;;;;;;;-0.81;100.00;99574.27;1757271;81;21148;-72
2022/02/16 05:04:04;;;;;;;;;;;;;;;-0.80;100.00;99576.44;1762108;80;20482;-73
2022/02/16 05:06:32;;;;;;;;;;;;;;;-0.80;100.00;99578.60;1789762;80;20096;-72
2022/02/16 05:08:59;;;;;;;;;;;;;;;-0.80;100.00;99584.52;1788606;80;20438;-71
2022/02/16 05:11:25;;;;;;;;;;;;;;;-0.79;100.00;99578.07;1789862;80;20145;-77
2022/02/16 05:13:58;;;;;;;;;;;;;;;-0.78;100.00;99587.27;1777480;80;20096;-75
2022/02/16 05:16:26;;;;;;;;;;;;;;;-0.79;100.00;99582.94;1788994;80;20135;-73
2022/02/16 05:18:55;;;;;;;;;;;;;;;-0.76;100.00;99593.23;1790761;80;20385;-74
2022/02/16 05:21:22;;;;;;;;;;;;;;;-0.75;100.00;99604.83;1789332;79;20104;-75
2022/02/16 05:23:49;;;;;;;;;;;;;;;-0.74;100.00;99605.13;1789623;80;20413;-80
2022/02/16 05:26:17;;;;;;;;;;;;;;;-0.74;100.00;99607.29;1771005;80;21059;-82
2022/02/16 05:28:43;;;;;;;;;;;;;;;-0.70;100.00;99607.63;1757417;81;20476;-75
2022/02/16 05:31:10;;;;;;;;;;;;;;;-0.68;100.00;99600.94;1771619;80;20081;-75
2022/02/16 05:33:37;;;;;;;;;;;;;;;-0.65;100.00;99599.64;1789746;80;20145;-75
2022/02/16 05:36:04;;;;;;;;;;;;;;;-0.61;100.00;99599.98;1788306;80;20172;-80
2022/02/16 05:38:33;;;;;;;;;;;;;;;-0.59;100.00;99600.55;1788175;80;21098;-72
2022/02/16 05:40:59;;;;;;;;;;;;;;;-0.57;100.00;99602.45;1788957;80;20083;-72
2022/02/16 05:43:26;;;;;;;;;;;;;;;-0.57;100.00;99599.22;1789017;80;20128;-71
2022/02/16 05:45:53;;;;;;;;;;;;;;;-0.54;100.00;99591.18;1789047;79;20080;-74
2022/02/16 05:48:21;;;;;;;;;;;;;;;-0.54;100.00;99587.95;1778156;80;20125;-74
2022/02/16 05:50:50;;;;;;;;;;;;;;;-0.52;100.00;99582.31;1776520;79;21972;-72
2022/02/16 05:53:18;;;;;;;;;;;;;;;-0.51;100.00;99581.25;1786944;79;20119;-73
2022/02/16 05:55:44;;;;;;;;;;;;;;;-0.50;100.00;99583.70;1790682;80;20102;-73
2022/02/16 05:58:10;;;;;;;;;;;;;;;-0.52;100.00;99581.78;1793558;80;20433;-73
2022/02/16 06:00:39;;;;;;;;;;;;;;;-0.50;100.00;99586.41;1789836;80;20159;-75
2022/02/16 06:03:06;;;;;;;;;;;;;;;-0.48;100.00;99589.68;1789507;80;21152;-79
2022/02/16 06:05:32;;;;;;;;;;;;;;;-0.47;100.00;99589.97;1792371;80;20436;-73
2022/02/16 06:07:59;;;;;;;;;;;;;;;-0.49;100.00;99577.78;1793431;80;20090;-73
2022/02/16 06:10:26;;;;;;;;;;;;;;;-0.51;100.00;99573.16;1793853;80;20603;-71
2022/02/16 06:12:53;;;;;;;;;;;;;;;-0.51;100.00;99569.12;1793727;80;20401;-72
2022/02/16 06:15:19;;;;;;;;;;;;;;;-0.53;100.00;99565.31;1791279;80;21127;-75
2022/02/16 06:17:47;;;;;;;;;;;;;;;-0.52;100.00;99563.44;1789854;80;20098;-73
2022/02/16 06:20:13;;;;;;;;;;;;;;;-0.52;100.00;99571.00;1790902;80;20082;-68
2022/02/16 06:22:41;;;;;;;;;;;;;;;-0.53;100.00;99577.45;1788510;80;20586;-76
2022/02/16 06:25:08;;;;;;;;;;;;;;;-0.54;100.00;99568.25;1790772;80;20589;-75
2022/02/16 06:27:38;;;;;;;;;;;;;;;-0.59;100.00;99573.59;1762277;80;21142;-74
2022/02/16 06:30:07;;;;;;;;;;;;;;;-0.63;100.00;99575.95;1791135;79;20150;-74
2022/02/16 06:32:48;;;;;;;;;;;;;;;-0.62;100.00;99578.12;1775930;80;20078;-74
2022/02/16 06:35:15;;;;;;;;;;;;;;;-0.62;100.00;99570.84;1788373;80;20230;-79
2022/02/16 06:37:45;;;;;;;;;;;;;;;-0.59;100.00;99569.55;1787517;80;20483;-76
2022/02/16 06:40:12;;;;;;;;;;;;;;;-0.57;100.00;99568.73;1787613;80;21173;-76
2022/02/16 06:42:41;;;;;;;;;;;;;;;-0.55;100.00;99561.23;1777642;80;20412;-82
2022/02/16 06:45:08;;;;;;;;;;;;;;;-0.50;100.00;99559.97;1784802;80;20115;-76
2022/02/16 06:47:38;;;;;;;;;;;;;;;-0.46;100.00;99555.73;1777740;80;20141;-74
2022/02/16 06:50:05;;;;;;;;;;;;;;;-0.46;100.00;99553.84;1769116;80;20111;-72
2022/02/16 06:52:32;;;;;;;;;;;;;;;-0.41;100.00;99564.72;1777710;80;21641;-70
2022/02/16 06:54:58;;;;;;;;;;;;;;;-0.36;100.00;99559.42;1791170;80;20117;-72
2022/02/16 06:57:25;;;;;;;;;;;;;;;-0.33;100.00;99558.11;1785539;79;20069;-72
2022/02/16 06:59:58;;;;;;;;;;;;;;;-0.31;100.00;99555.17;1766707;80;20118;-75
2022/02/16 07:02:25;;;;;;;;;;;;;;;-0.32;100.00;99550.31;1757241;81;20099;-76
2022/02/16 07:04:53;;;;;;;;;;;;;;;-0.32;100.00;99550.84;1757141;81;21163;-72
2022/02/16 07:07:20;;;;;;;;;;;;;;;-0.31;100.00;99543.03;1780167;80;20527;-73
2022/02/16 07:09:46;;;;;;;;;;;;;;;-0.28;100.00;99544.70;1777228;80;20462;-74
2022/02/16 07:12:14;;;;;;;;;;;;;;;-0.28;100.00;99537.97;1789497;80;20121;-73
2022/02/16 07:14:41;;;;;;;;;;;;;;;-0.28;100.00;99529.88;1790418;79;20133;-75
2022/02/16 07:17:09;;;;;;;;;;;;;;;-0.26;100.00;99535.02;1762287;80;40344;-74
2022/02/16 07:19:35;;;;;;;;;;;;;;;-0.25;100.00;99533.95;1790849;79;20129;-74
2022/02/16 07:22:04;;;;;;;;;;;;;;;-0.23;100.00;99524.56;1789880;80;20066;-77
2022/02/16 07:24:32;;;;;;;;;;;;;;;-0.20;100.00;99522.72;1789684;79;20098;-71
2022/02/16 07:26:59;;;;;;;;;;;;;;;-0.22;100.00;99520.80;1786258;80;20177;-75
2022/02/16 07:29:27;;;;;;;;;;;;;;;-0.21;100.00;99514.34;1789188;80;21697;-73
2022/02/16 07:31:54;;;;;;;;;;;;;;;-0.15;100.00;99517.41;1790764;80;20425;-75
2022/02/16 07:34:24;;;;;;;;;;;;;;;-0.12;100.00;99510.16;1790880;80;20090;-71
2022/02/16 07:36:52;;;;;;;;;;;;;;;-0.07;100.00;99516.98;1762211;80;20575;-74
2022/02/16 07:39:27;;;;;;;;;;;;;;;-0.05;100.00;99513.52;1790879;80;20421;-72
2022/02/16 07:41:49;;;;;;;;;;;;;;;-0.02;100.00;99513.02;1790793;80;21086;-72
2022/02/16 07:44:20;;;;;;;;;;;;;;;-0.01;100.00;99508.44;1787874;80;20424;-74
2022/02/16 07:46:49;;;;;;;;;;;;;;;-0.01;100.00;99509.25;1785686;78;20204;-76
2022/02/16 07:49:17;;;;;;;;;;;;;;;-0.02;100.00;99508.16;1790026;80;20178;-76
2022/02/16 07:52:03;;;;;;;;;;;;;;;-0.04;100.00;99502.19;1789214;79;20221;-77
2022/02/16 07:54:31;;;;;;;;;;;;;;;-0.05;100.00;99507.30;1782643;80;21960;-75
2022/02/16 07:57:05;;;;;;;;;;;;;;;-0.03;100.00;99510.56;1784260;78;20118;-73
2022/02/16 07:59:32;;;;;;;;;;;;;;;-0.02;100.00;99512.20;1790199;80;20148;-77
2022/02/16 08:01:58;;;;;;;;;;;;;;;-0.02;100.00;99513.55;1790238;80;20733;-75
2022/02/16 08:04:25;;;;;;;;;;;;;;;-0.02;100.00;99518.95;1790254;80;20432;-77
2022/02/16 08:06:53;;;;;;;;;;;;;;;-0.02;100.00;99518.41;1790316;79;21197;-75
2022/02/16 08:09:20;;;;;;;;;;;;;;;-0.02;100.00;99517.59;1790375;80;20291;-78
2022/02/16 08:11:46;;;;;;;;;;;;;;;-0.02;100.00;99508.16;1789997;78;20188;-77
2022/02/16 08:14:13;;;;;;;;;;;;;;;-0.03;100.00;99503.28;1790208;80;20078;-75
2022/02/16 08:16:44;;;;;;;;;;;;;;;0.03;100.00;99501.98;1790366;80;20090;-75
2022/02/16 08:19:11;;;;;;;;;;;;;;;0.04;100.00;99493.64;1790019;80;21495;-76
2022/02/16 08:21:38;;;;;;;;;;;;;;;0.05;100.00;99498.50;1789961;80;20106;-74
2022/02/16 08:24:06;;;;;;;;;;;;;;;0.09;100.00;99491.55;1788164;80;20104;-73
2022/02/16 08:26:33;;;;;;;;;;;;;;;0.13;100.00;99503.48;1788238;80;20402;-75
2022/02/16 08:29:01;;;;;;;;;;;;;;;0.16;100.00;99497.58;1788214;80;20104;-72
2022/02/16 08:31:27;;;;;;;;;;;;;;;0.20;100.00;99501.42;1788164;80;20557;-75
2022/02/16 08:33:55;;;;;;;;;;;;;;;0.23;100.00;99494.17;1779769;80;20583;-73
2022/02/16 08:36:23;;;;;;;;;;;;;;;0.24;100.00;99501.20;1790095;80;20082;-71
2022/02/16 08:38:50;;;;;;;;;;;;;;;0.26;100.00;99499.08;1793374;80;20114;-73
2022/02/16 08:41:17;;;;;;;;;;;;;;;0.29;100.00;99504.79;1804563;79;20084;-74
2022/02/16 08:43:43;;;;;;;;;;;;;;;0.29;100.00;99499.92;1789154;80;21120;-70
2022/02/16 08:46:10;;;;;;;;;;;;;;;0.25;100.00;99499.61;1789940;80;20083;-71
2022/02/16 08:48:36;;;;;;;;;;;;;;;0.23;100.00;99499.57;1790961;80;20113;-71
2022/02/16 08:51:03;;;;;;;;;;;;;;;0.22;100.00;99492.00;1791110;80;20519;-73
2022/02/16 08:53:30;;;;;;;;;;;;;;;0.20;100.00;99498.19;1788357;80;20066;-72
2022/02/16 08:55:58;;;;;;;;;;;;;;;0.19;100.00;99498.44;1790966;79;23058;-73
2022/02/16 08:58:25;;;;;;;;;;;;;;;0.19;100.00;99492.50;1788157;80;20114;-73
2022/02/16 09:00:52;;;;;;;;;;;;;;;0.20;100.00;99497.37;1790994;80;20106;-76
2022/02/16 09:03:18;;;;;;;;;;;;;;;0.24;100.00;99490.41;1791008;80;20114;-74
2022/02/16 09:05:45;;;;;;;;;;;;;;;0.27;100.00;99489.38;1790986;80;20090;-72
2022/02/16 09:08:13;;;;;;;;;;;;;;;0.31;100.00;99495.09;1790871;80;21890;-73
2022/02/16 09:10:39;;;;;;;;;;;;;;;0.33;100.00;99492.42;1787523;79;20419;-72
2022/02/16 09:13:07;;;;;;;;;;;;;;;0.35;100.00;99494.88;1782917;79;20096;-72
2022/02/16 09:15:33;;;;;;;;;;;;;;;0.36;100.00;99490.30;1759774;80;20442;-73
2022/02/16 09:17:59;;;;;;;;;;;;;;;0.37;100.00;99487.88;1788314;80;20108;-82
2022/02/16 09:20:27;;;;;;;;;;;;;;;0.38;100.00;99487.62;1788153;80;20076;-70
2022/02/16 09:22:54;;;;;;;;;;;;;;;0.42;100.00;99482.01;1788210;80;20734;-70
2022/02/16 09:25:20;;;;;;;;;;;;;;;0.50;100.00;99483.45;1788132;80;20163;-70
2022/02/16 09:27:47;;;;;;;;;;;;;;;0.54;100.00;99489.45;1788285;79;20092;-72
2022/02/16 09:30:14;;;;;;;;;;;;;;;0.59;100.00;99481.91;1788273;80;20088;-70
2022/02/16 09:32:40;;;;;;;;;;;;;;;0.60;100.00;99476.26;1789606;80;21055;-73
2022/02/16 09:35:08;;;;;;;;;;;;;;;0.58;100.00;99475.70;1791180;80;20092;-72
2022/02/16 09:37:35;;;;;;;;;;;;;;;0.59;100.00;99464.36;1791562;80;20104;-88
2022/02/16 09:40:01;;;;;;;;;;;;;;;0.63;100.00;99459.55;1760298;80;20116;-80
2022/02/16 09:42:29;;;;;;;;;;;;;;;0.64;100.00;99463.88;1793947;80;20074;-74
2022/02/16 09:45:03;;;;;;;;;;;;;;;0.61;100.00;99458.16;1792848;79;21141;-75
2022/02/16 09:47:30;;;;;;;;;;;;;;;0.58;100.00;99459.48;1792344;79;20118;-74
2022/02/16 09:49:58;;;;;;;;;;;;;;;0.58;100.00;99452.73;1752276;81;20103;-80
2022/02/16 09:52:26;;;;;;;;;;;;;;;0.58;100.00;99443.81;1724500;82;20193;-80
2022/02/16 09:54:52;;;;;;;;;;;;;;;0.62;100.00;99442.23;1708875;82;20142;-77
2022/02/16 09:57:18;;;;;;;;;;;;;;;0.70;100.00;99439.63;1737517;82;21154;-76
2022/02/16 09:59:45;;;;;;;;;;;;;;;0.77;100.00;99440.24;1791196;80;20118;-80
2022/02/16 10:02:12;;;;;;;;;;;;;;;0.79;100.00;99425.94;1791163;79;20130;-74
2022/02/16 10:04:42;;;;;;;;;;;;;;;0.79;100.00;99421.89;1791658;80;20108;-81
2022/02/16 10:07:24;;;;;;;;;;;;;;;0.81;100.00;99419.21;1792354;79;20144;-73
2022/02/16 10:09:50;;;;;;;;;;;;;;;0.88;100.00;99416.30;1789439;80;21072;-73
2022/02/16 10:12:18;;;;;;;;;;;;;;;0.97;100.00;99410.18;1791505;80;20123;-74
2022/02/16 10:14:45;;;;;;;;;;;;;;;1.03;100.00;99404.83;1791792;80;20428;-75
2022/02/16 10:17:18;;;;;;;;;;;;;;;1.05;100.00;99396.73;1791829;80;20132;-76
2022/02/16 10:20:01;;;;;;;;;;;;;;;1.06;100.00;99382.14;1788126;80;20108;-79
2022/02/16 10:22:30;;;;;;;;;;;;;;;1.13;100.00;99377.34;1788955;80;21533;-76
2022/02/16 10:25:11;;;;;;;;;;;;;;;1.21;100.00;99382.78;1792624;79;20131;-83
2022/02/16 10:27:38;;;;;;;;;;;;;;;1.25;100.00;99377.95;1745140;80;20184;-75
2022/02/16 10:30:15;;;;;;;;;;;;;;;1.24;100.00;99382.27;1791566;79;20475;-78
2022/02/16 10:32:41;;;;;;;;;;;;;;;1.23;100.00;99380.63;1780035;79;20122;-78
2022/02/16 10:35:07;;;;;;;;;;;;;;;1.22;100.00;99375.77;1788266;80;21057;-71
2022/02/16 10:37:36;;;;;;;;;;;;;;;1.24;100.00;99368.75;1788287;80;20073;-75
2022/02/16 10:40:10;;;;;;;;;;;;;;;1.28;100.00;99366.62;1787974;79;20171;-79
2022/02/16 10:42:37;;;;;;;;;;;;;;;1.35;100.00;99375.86;1788660;79;20080;-79
2022/02/16 10:45:05;;;;;;;;;;;;;;;1.39;100.00;99372.09;1788182;80;20069;-75
2022/02/16 10:47:52;;;;;;;;;;;;;;;1.40;100.00;99374.55;1736852;80;21142;-76
2022/02/16 10:50:21;;;;;;;;;;;;;;;1.37;100.00;99371.55;1788145;80;20116;-77
2022/02/16 10:52:53;;;;;;;;;;;;;;;1.33;100.00;99372.06;1788110;80;20093;-74
2022/02/16 10:55:20;;;;;;;;;;;;;;;1.33;100.00;99371.25;1788269;80;20431;-81
2022/02/16 10:57:47;;;;;;;;;;;;;;;1.30;100.00;99373.94;1788039;80;20096;-74
2022/02/16 11:00:14;;;;;;;;;;;;;;;1.28;100.00;99379.32;1789361;80;21777;-73
2022/02/16 11:02:42;;;;;;;;;;;;;;;1.24;100.00;99377.67;1793087;80;20094;-76
2022/02/16 11:05:09;;;;;;;;;;;;;;;1.23;100.00;99387.39;1757421;80;20172;-81
2022/02/16 11:07:35;;;;;;;;;;;;;;;1.19;100.00;99392.50;1791218;80;20662;-73
2022/02/16 11:10:04;;;;;;;;;;;;;;;1.17;100.00;99382.48;1789700;80;20113;-76
2022/02/16 11:12:30;;;;;;;;;;;;;;;1.15;100.00;99372.49;1791022;79;21803;-79
2022/02/16 11:14:57;;;;;;;;;;;;;;;1.17;100.00;99367.61;1791148;80;20106;-76
2022/02/16 11:17:27;;;;;;;;;;;;;;;1.20;100.00;99354.11;1789644;80;20110;-73
2022/02/16 11:20:24;;;;;;;;;;;;;;;1.20;100.00;99348.16;1791019;80;20109;-75
2022/02/16 11:22:51;;;;;;;;;;;;;;;1.25;100.00;99341.44;1789688;79;20090;-74
2022/02/16 11:25:35;;;;;;;;;;;;;;;1.25;100.00;99337.39;1761374;80;21111;-72
2022/02/16 11:28:11;;;;;;;;;;;;;;;1.24;100.00;99336.30;1790806;79;20113;-71
2022/02/16 11:30:44;;;;;;;;;;;;;;;1.28;100.00;99332.00;1789621;80;20110;-73
2022/02/16 11:33:23;;;;;;;;;;;;;;;1.28;100.00;99328.75;1789170;80;20137;-72
2022/02/16 11:35:50;;;;;;;;;;;;;;;1.32;100.00;99320.40;1790342;80;20441;-72
2022/02/16 11:38:47;;;;;;;;;;;;;;;1.34;100.00;99309.32;1782815;80;20096;-73
2022/02/16 11:41:24;;;;;;;;;;;;;;;1.37;100.00;99307.98;1761592;79;20113;-72
2022/02/16 11:44:08;;;;;;;;;;;;;;;1.38;100.00;99310.97;1762411;80;20098;-72
2022/02/16 11:46:39;;;;;;;;;;;;;;;1.37;100.00;99306.09;1789454;80;20106;-71
2022/02/16 11:49:07;;;;;;;;;;;;;;;1.38;100.00;99300.15;1797822;79;20464;-72
2022/02/16 11:51:44;;;;;;;;;;;;;;;1.40;100.00;99307.46;1768300;79;20459;-72
2022/02/16 11:54:44;;;;;;;;;;;;;;;1.41;100.00;99305.03;1794467;79;20080;-73
2022/02/16 11:57:38;;;;;;;;;;;;;;;1.43;100.00;99302.88;1778271;79;20110;-73
2022/02/16 12:00:11;;;;;;;;;;;;;;;1.43;100.00;99304.23;1784163;79;21258;-77
2022/02/16 12:03:06;;;;;;;;;;;;;;;1.41;100.00;99303.68;1790078;78;20118;-84
2022/02/16 12:05:56;;;;;;;;;;;;;;;1.43;100.00;99290.71;1788481;80;21178;-81
2022/02/16 12:08:36;;;;;;;;;;;;;;;1.39;100.00;99300.42;1727693;79;20085;-76
2022/02/16 12:11:16;;;;;;;;;;;;;;;1.34;100.00;99293.09;1788039;80;20084;-75
2022/02/16 12:13:58;;;;;;;;;;;;;;;1.31;100.00;99286.31;1786929;79;20116;-74
2022/02/16 12:16:32;;;;;;;;;;;;;;;1.30;100.00;99280.63;1788129;79;20080;-82
2022/02/16 12:19:03;;;;;;;;;;;;;;;1.32;100.00;99275.77;1787387;80;21139;-79
2022/02/16 12:21:33;;;;;;;;;;;;;;;1.35;100.00;99263.62;1790170;80;20189;-84
2022/02/16 12:24:05;;;;;;;;;;;;;;;1.35;100.00;99258.75;1793416;80;20106;-76
2022/02/16 12:26:39;;;;;;;;;;;;;;;1.30;100.00;99258.99;1793269;80;20090;-74
2022/02/16 12:29:11;;;;;;;;;;;;;;;1.25;100.00;99263.56;1766744;80;20093;-73
2022/02/16 12:31:39;;;;;;;;;;;;;;;1.20;100.00;99264.34;1793619;80;21124;-75
2022/02/16 12:34:09;;;;;;;;;;;;;;;1.14;100.00;99255.14;1767356;80;20129;-71
2022/02/16 12:36:50;;;;;;;;;;;;;;;1.10;100.00;99249.44;1737406;80;20078;-70
2022/02/16 12:39:23;;;;;;;;;;;;;;;1.08;100.00;99246.18;1766959;80;20122;-71
2022/02/16 12:41:52;;;;;;;;;;;;;;;1.09;100.00;99240.23;1792061;78;20199;-74
2022/02/16 12:44:32;;;;;;;;;;;;;;;1.12;100.00;99241.88;1789252;80;21956;-72
2022/02/16 12:47:07;;;;;;;;;;;;;;;1.16;100.00;99236.73;1735873;80;20164;-72
2022/02/16 12:49:42;;;;;;;;;;;;;;;1.16;100.00;99229.44;1790868;80;20121;-74